Saint Johnsbury, Vermont
Current Conditions -  °F | °C
As of 5:15 AM on Sunday 26 Oct 2014 (Local Time) from KCDA Reporting Station
Overcast Overcast  
Wind Chill: 40°   Ceiling: 2500
Heat Index: 45°   Visibility: 10mi
Dew Point: 41°   Wind: 8mph
Humidity: 85%   Direction: 260°W
Pressure: 29.42"   Gusts: NA
Location:  44.42°N, 72.01°W
Report Text: KCDA 260915Z AUTO 26007KT 10SM BKN025 BKN033 OVC050 07/05 A2942 RMK AO2 T00710048
Loading
Personal Weather Stations






























Interactive Weather Map
Tropical Storm Tracking
New forecast layout! Learn more

10-Day Weather Forecast

Advertisements
Track Severe Weather on mobile